Time;durP1;ratioP1;P1;durP2;ratioP2;P2;SDS_P1;SDS_P2;PMS_P1;PMS_P2;Temp;Humidity;BMP_temperature;BMP_pressure;BME280_temperature;BME280_humidity;BME280_pressure;Samples;Min_cycle;Max_cycle;Signal;HPM_P1;HPM_P2
2022/09/26 00:00:29;;;;;;;6.10;5.30;;;;;;;9.23;75.92;96424.13;5095493;28;20504;-66
2022/09/26 00:02:56;;;;;;;8.23;5.15;;;;;;;9.25;75.39;96424.94;5095519;28;20047;-66
2022/09/26 00:05:23;;;;;;;6.10;5.50;;;;;;;9.21;75.34;96418.09;5094811;28;20402;-67
2022/09/26 00:07:50;;;;;;;5.78;5.28;;;;;;;9.18;75.31;96421.69;5095337;28;20119;-67
2022/09/26 00:10:17;;;;;;;8.65;5.25;;;;;;;9.14;75.90;96414.88;5095416;28;20481;-67
2022/09/26 00:12:45;;;;;;;6.20;5.60;;;;;;;9.17;76.04;96417.38;5095407;28;20194;-65
2022/09/26 00:15:12;;;;;;;5.43;4.93;;;;;;;9.17;76.35;96411.28;5095038;28;20052;-66
2022/09/26 00:17:39;;;;;;;5.50;5.00;;;;;;;9.19;75.96;96415.56;5095296;28;20060;-68
2022/09/26 00:20:07;;;;;;;6.72;5.38;;;;;;;9.16;75.76;96412.22;5095099;28;20448;-68
2022/09/26 00:22:34;;;;;;;5.60;5.10;;;;;;;9.16;75.41;96415.69;5095157;28;20500;-67
2022/09/26 00:25:01;;;;;;;5.88;5.18;;;;;;;9.14;75.78;96416.63;5095144;28;20125;-68
2022/09/26 00:27:28;;;;;;;5.30;4.80;;;;;;;9.14;75.36;96408.78;5095016;28;20135;-66
2022/09/26 00:29:57;;;;;;;5.60;5.10;;;;;;;9.08;74.62;96421.16;5094972;28;20476;-68
2022/09/26 00:32:24;;;;;;;5.65;5.07;;;;;;;9.04;74.68;96419.56;5095037;28;20075;-67
2022/09/26 00:34:51;;;;;;;5.38;4.88;;;;;;;9.01;75.24;96430.09;5094817;28;20091;-65
2022/09/26 00:37:18;;;;;;;6.40;5.80;;;;;;;9.02;75.04;96428.31;5094830;28;20044;-66
2022/09/26 00:39:45;;;;;;;5.53;4.88;;;;;;;9.00;75.43;96423.16;5094829;28;20126;-67
2022/09/26 00:42:14;;;;;;;6.53;5.07;;;;;;;8.97;75.15;96424.13;5094703;28;20044;-68
2022/09/26 00:44:48;;;;;;;5.65;5.00;;;;;;;8.95;75.10;96425.94;5094735;28;20471;-68
2022/09/26 00:47:27;;;;;;;6.18;5.25;;;;;;;8.94;75.15;96416.38;5094790;28;20117;-65
2022/09/26 00:49:58;;;;;;;5.47;4.97;;;;;;;8.91;74.28;96411.28;5094607;28;20132;-68
2022/09/26 00:52:28;;;;;;;5.20;4.68;;;;;;;8.85;74.29;96407.13;5094580;28;20074;-68
2022/09/26 00:54:58;;;;;;;5.95;5.35;;;;;;;8.84;75.03;96399.34;5094451;28;20066;-67
2022/09/26 00:57:31;;;;;;;7.43;5.82;;;;;;;8.76;77.18;96406.59;5094436;28;20056;-67
2022/09/26 01:00:08;;;;;;;5.90;5.30;;;;;;;8.71;77.47;96397.16;5094466;28;20136;-66
2022/09/26 01:02:37;;;;;;;6.78;5.80;;;;;;;8.74;77.54;96401.41;5094470;28;20048;-65
2022/09/26 01:05:06;;;;;;;6.15;5.55;;;;;;;8.76;76.91;96403.97;5094414;28;20126;-65
2022/09/26 01:07:35;;;;;;;6.57;5.97;;;;;;;8.77;76.79;96388.28;5094204;28;20131;-65
2022/09/26 01:10:03;;;;;;;7.22;5.68;;;;;;;8.77;76.31;96380.44;5094141;28;20482;-67
2022/09/26 01:12:30;;;;;;;6.07;5.10;;;;;;;8.80;75.77;96382.97;5094228;28;20048;-65
2022/09/26 01:14:58;;;;;;;5.80;5.30;;;;;;;8.81;75.60;96386.41;5093907;28;20070;-66
2022/09/26 01:17:27;;;;;;;6.75;5.78;;;;;;;8.81;75.94;96386.41;5093255;28;20085;-67
2022/09/26 01:20:13;;;;;;;6.75;5.18;;;;;;;8.82;75.67;96385.53;5094033;28;20127;-67
2022/09/26 01:23:18;;;;;;;6.90;5.38;;;;;;;8.83;76.01;96385.47;5093957;28;20044;-67
2022/09/26 01:26:09;;;;;;;8.27;6.30;;;;;;;8.83;75.88;96389.81;5094058;28;20079;-66
2022/09/26 01:28:49;;;;;;;;;;;;;;;8.79;76.11;96381.22;5091824;28;20134;-65
2022/09/26 01:31:26;;;;;;;6.80;5.57;;;;;;;8.77;76.55;96387.41;5093880;28;20326;-66
2022/09/26 01:34:02;;;;;;;6.15;5.50;;;;;;;8.77;76.56;96380.44;5093819;28;20131;-66
2022/09/26 01:36:50;;;;;;;8.73;6.18;;;;;;;8.81;76.61;96382.03;5093741;28;20108;-67
2022/09/26 01:39:34;;;;;;;7.25;5.60;;;;;;;8.80;75.67;96382.97;5093617;28;20429;-66
2022/09/26 01:42:14;;;;;;;7.38;5.93;;;;;;;8.76;75.63;96391.78;5093642;28;20097;-66
2022/09/26 01:44:47;;;;;;;6.15;5.47;;;;;;;8.72;75.80;96398.84;5093558;28;20135;-67
2022/09/26 01:47:18;;;;;;;6.03;5.43;;;;;;;8.63;76.15;96390.47;5093669;28;20047;-67
2022/09/26 01:49:52;;;;;;;5.80;5.30;;;;;;;8.62;76.96;96387.03;5093667;28;20051;-67
2022/09/26 01:52:28;;;;;;;7.45;5.00;;;;;;;8.61;76.70;96389.69;5093595;28;20093;-66
2022/09/26 01:54:59;;;;;;;6.47;5.05;;;;;;;8.56;77.06;96388.09;5093410;28;20040;-66
2022/09/26 01:57:30;;;;;;;5.28;4.50;;;;;;;8.56;76.84;96382.88;5093316;28;20078;-67
2022/09/26 02:00:02;;;;;;;5.38;4.88;;;;;;;8.57;76.45;96389.78;5093444;28;20047;-65
2022/09/26 02:02:36;;;;;;;5.45;4.90;;;;;;;8.53;76.38;96389.88;5093472;28;20383;-67
2022/09/26 02:05:07;;;;;;;6.03;5.30;;;;;;;8.53;75.61;96390.75;5093366;28;20082;-65
2022/09/26 02:07:38;;;;;;;6.30;5.10;;;;;;;8.48;75.45;96392.63;5093404;28;20131;-65
2022/09/26 02:10:12;;;;;;;6.28;5.28;;;;;;;8.41;75.87;96388.53;5093275;28;20051;-66
2022/09/26 02:12:44;;;;;;;7.68;5.70;;;;;;;8.37;77.09;96399.97;5093167;28;20128;-66
2022/09/26 02:15:15;;;;;;;7.10;5.43;;;;;;;8.38;77.30;96394.69;5092970;28;20058;-66
2022/09/26 02:17:48;;;;;;;6.68;6.05;;;;;;;8.37;76.97;96389.53;5093299;28;20105;-66
2022/09/26 02:20:19;;;;;;;8.57;6.25;;;;;;;8.23;77.60;96396.03;5093223;28;20513;-65
2022/09/26 02:22:46;;;;;;;6.05;5.30;;;;;;;8.24;78.13;96389.06;5093286;28;20048;-65
2022/09/26 02:25:13;;;;;;;6.25;5.38;;;;;;;8.20;77.95;96393.50;5093265;28;20444;-65
2022/09/26 02:27:40;;;;;;;10.10;5.40;;;;;;;8.16;77.51;96382.31;5094075;28;20044;-65
2022/09/26 02:30:09;;;;;;;6.30;5.68;;;;;;;8.12;77.98;96393.75;5097323;28;20048;-65
2022/09/26 02:32:37;;;;;;;6.90;5.40;;;;;;;8.13;77.24;96384.19;5097214;28;20044;-66
2022/09/26 02:37:56;;;;;;;6.35;5.35;;;;;;;8.06;77.36;96389.56;5097109;28;20052;-66
2022/09/26 02:40:34;;;;;;;8.48;6.45;;;;;;;8.01;78.22;96386.25;5097218;28;20555;-67
2022/09/26 02:43:12;;;;;;;7.43;6.47;;;;;;;7.96;78.93;96380.34;5097140;28;20055;-67
2022/09/26 02:45:47;;;;;;;6.55;5.85;;;;;;;7.96;79.27;96375.13;5097027;28;20131;-67
2022/09/26 02:48:29;;;;;;;6.00;5.40;;;;;;;7.99;78.78;96379.38;5096996;28;20044;-65
2022/09/26 02:51:10;;;;;;;5.95;5.35;;;;;;;8.00;78.14;96379.34;5096932;28;20106;-65
2022/09/26 02:53:57;;;;;;;5.50;5.00;;;;;;;8.01;77.46;96375.00;5096802;28;20565;-65
2022/09/26 02:56:30;;;;;;;4.95;4.55;;;;;;;7.96;77.36;96390.75;5096852;28;20048;-66
2022/09/26 02:59:06;;;;;;;6.40;5.68;;;;;;;7.96;77.30;96386.41;5096746;28;20093;-67
2022/09/26 03:01:41;;;;;;;7.78;5.82;;;;;;;7.94;77.27;96374.31;5096615;28;20486;-65
2022/09/26 03:04:14;;;;;;;6.55;5.70;;;;;;;7.88;78.49;96377.09;5096629;28;20044;-66
2022/09/26 03:06:46;;;;;;;6.20;5.68;;;;;;;7.87;78.46;96367.59;5096527;28;20044;-66
2022/09/26 03:09:15;;;;;;;6.47;5.13;;;;;;;7.94;77.60;96371.69;5096492;28;20044;-65
2022/09/26 03:11:44;;;;;;;5.57;5.05;;;;;;;7.92;76.76;96371.75;5096521;28;20063;-66
2022/09/26 03:14:13;;;;;;;9.95;5.10;;;;;;;7.90;77.70;96364.88;5096457;28;20076;-66
2022/09/26 03:16:44;;;;;;;6.70;5.97;;;;;;;7.94;78.83;96366.50;5096294;28;20044;-65
2022/09/26 03:19:16;;;;;;;5.45;4.95;;;;;;;7.92;78.49;96366.53;5096341;28;20052;-66
2022/09/26 03:21:45;;;;;;;5.80;5.20;;;;;;;7.93;77.68;96362.19;5096240;28;20461;-66
2022/09/26 03:24:13;;;;;;;6.15;5.45;;;;;;;7.93;77.37;96367.41;5096408;28;20434;-67
2022/09/26 03:26:41;;;;;;;7.80;5.63;;;;;;;7.92;77.71;96350.06;5096267;28;20489;-67
2022/09/26 03:29:08;;;;;;;9.95;6.10;;;;;;;7.90;78.20;96357.06;5096264;28;20063;-67
2022/09/26 03:31:36;;;;;;;6.07;5.20;;;;;;;7.91;78.16;96353.56;5096099;28;20044;-65
2022/09/26 03:34:03;;;;;;;13.48;5.93;;;;;;;7.91;77.68;96359.63;5096117;28;20048;-66
2022/09/26 03:36:31;;;;;;;8.07;5.65;;;;;;;7.91;77.04;96358.78;5095825;28;20444;-65
2022/09/26 03:38:59;;;;;;;6.72;6.00;;;;;;;7.78;78.36;96353.94;5095219;28;20437;-66
2022/09/26 03:41:26;;;;;;;6.25;5.63;;;;;;;7.76;79.13;96360.94;5095667;28;20131;-66
2022/09/26 03:43:53;;;;;;;6.30;5.70;;;;;;;7.81;78.95;96353.00;5095949;28;20040;-66
2022/09/26 03:46:20;;;;;;;7.38;6.68;;;;;;;7.83;78.42;96351.22;5095946;28;20051;-66
2022/09/26 03:48:48;;;;;;;6.22;5.70;;;;;;;7.80;78.35;96348.69;5095774;28;20443;-67
2022/09/26 03:51:15;;;;;;;6.88;6.18;;;;;;;7.77;77.89;96354.00;5095792;28;20533;-66
2022/09/26 03:53:44;;;;;;;6.78;6.07;;;;;;;7.78;78.29;96345.28;5095704;28;20048;-66
2022/09/26 03:56:15;;;;;;;6.40;5.70;;;;;;;7.82;78.13;96347.75;5095442;28;20132;-65
2022/09/26 03:58:42;;;;;;;7.60;5.43;;;;;;;7.84;77.92;96343.34;5095713;28;20482;-66
2022/09/26 04:01:12;;;;;;;8.85;6.70;;;;;;;7.82;78.75;96334.72;5095616;28;20461;-68
2022/09/26 04:03:42;;;;;;;7.25;6.28;;;;;;;7.83;78.34;96328.59;5095531;28;20052;-66
2022/09/26 04:06:11;;;;;;;5.93;5.43;;;;;;;7.83;78.56;96330.38;5095548;28;20044;-67
2022/09/26 04:08:40;;;;;;;6.90;6.18;;;;;;;7.84;78.29;96332.06;5095318;28;20052;-67
2022/09/26 04:11:09;;;;;;;7.53;5.93;;;;;;;7.87;78.38;96336.31;5095441;28;20132;-66
2022/09/26 04:13:38;;;;;;;6.35;5.75;;;;;;;7.85;78.58;96344.19;5095472;28;20101;-66
2022/09/26 04:16:06;;;;;;;6.68;5.97;;;;;;;7.86;78.45;96340.69;5095080;28;20506;-66
2022/09/26 04:18:34;;;;;;;5.63;5.05;;;;;;;7.88;77.64;96338.03;5095360;28;20105;-66
2022/09/26 04:21:04;;;;;;;8.85;6.00;;;;;;;7.87;77.56;96342.41;5095261;28;20127;-67
2022/09/26 04:23:32;;;;;;;9.13;5.63;;;;;;;7.85;77.88;96331.16;5095044;28;20510;-66
2022/09/26 04:26:05;;;;;;;6.43;5.82;;;;;;;7.80;79.09;96331.31;5094981;28;20048;-66
2022/09/26 04:28:32;;;;;;;6.10;5.50;;;;;;;7.85;79.32;96328.56;5094990;28;20048;-66
2022/09/26 04:31:01;;;;;;;6.90;5.35;;;;;;;7.92;78.18;96334.44;5095068;28;20079;-65
2022/09/26 04:33:31;;;;;;;5.53;5.03;;;;;;;7.96;77.70;96341.25;5094580;28;20083;-66
2022/09/26 04:36:00;;;;;;;9.57;6.20;;;;;;;7.99;78.13;96343.78;5095072;28;20100;-65
2022/09/26 04:38:31;;;;;;;8.13;5.65;;;;;;;8.07;78.78;96343.53;5094963;28;20048;-66
2022/09/26 04:41:02;;;;;;;9.20;5.60;;;;;;;8.13;78.46;96338.13;5094919;28;20126;-67
2022/09/26 04:43:29;;;;;;;5.75;5.25;;;;;;;8.24;78.39;96335.19;5094761;28;20048;-65
2022/09/26 04:45:56;;;;;;;7.78;6.22;;;;;;;8.31;79.31;96338.47;5094713;28;20105;-65
2022/09/26 04:48:26;;;;;;;6.82;5.78;;;;;;;8.38;79.22;96342.56;5094629;28;20051;-66
2022/09/26 04:50:53;;;;;;;5.85;4.93;;;;;;;8.44;78.86;96341.50;5094479;28;20048;-66
2022/09/26 04:53:20;;;;;;;8.10;5.50;;;;;;;8.48;78.30;96345.72;5094579;28;20048;-66
2022/09/26 04:55:49;;;;;;;6.22;5.20;;;;;;;8.55;78.36;96349.84;5094546;28;20050;-65
2022/09/26 04:58:17;;;;;;;6.57;5.15;;;;;;;8.62;77.79;96342.69;5094407;28;20044;-66
2022/09/26 05:00:48;;;;;;;6.88;6.20;;;;;;;8.69;78.56;96341.59;5094410;28;20044;-66
2022/09/26 05:03:16;;;;;;;7.88;6.15;;;;;;;8.78;79.25;96336.94;5094486;28;20131;-65
2022/09/26 05:05:46;;;;;;;7.70;4.90;;;;;;;8.89;79.18;96340.06;5094491;28;20076;-65
2022/09/26 05:08:14;;;;;;;8.63;5.30;;;;;;;8.99;78.94;96332.75;5094449;28;20139;-66
2022/09/26 05:10:42;;;;;;;5.63;4.65;;;;;;;9.09;78.97;96338.47;5094297;28;20315;-66
2022/09/26 05:13:09;;;;;;;6.22;5.63;;;;;;;9.18;78.34;96337.34;5094246;28;20082;-67
2022/09/26 05:15:40;;;;;;;5.95;5.20;;;;;;;9.26;78.78;96334.44;5093968;28;20095;-66
2022/09/26 05:18:10;;;;;;;8.05;5.43;;;;;;;9.33;78.51;96336.75;5094150;28;20448;-65
2022/09/26 05:20:38;;;;;;;6.25;5.53;;;;;;;9.43;78.78;96344.28;5094091;28;20044;-67
2022/09/26 05:23:08;;;;;;;10.32;6.45;;;;;;;9.52;78.62;96346.56;5094113;28;20048;-66
2022/09/26 05:28:22;;;;;;;10.95;5.00;;;;;;;9.78;78.33;96351.72;5094076;28;20055;-65
2022/09/26 05:30:50;;;;;;;7.55;5.40;;;;;;;9.91;78.07;96342.50;5093859;28;20490;-66
2022/09/26 05:33:18;;;;;;;6.55;4.80;;;;;;;10.10;77.71;96337.41;5093719;28;20052;-67
2022/09/26 05:35:49;;;;;;;4.53;4.13;;;;;;;11.07;76.93;96337.88;5093818;28;20464;-65
2022/09/26 05:38:17;;;;;;;6.13;3.95;;;;;;;12.85;71.57;96337.56;5093570;28;20094;-66
2022/09/26 05:40:55;;;;;;;3.80;3.25;;;;;;;14.70;64.40;96345.28;5093726;28;20135;-67
2022/09/26 05:43:23;;;;;;;3.55;2.70;;;;;;;16.42;58.62;96341.09;5093577;28;20051;-66
2022/09/26 05:45:50;;;;;;;3.28;2.97;;;;;;;17.78;54.45;96347.09;5093651;28;20048;-67
2022/09/26 05:48:17;;;;;;;2.72;2.42;;;;;;;18.49;51.34;96350.97;5093551;28;20083;-67
2022/09/26 05:50:44;;;;;;;3.10;2.80;;;;;;;19.02;49.32;96350.56;5093578;28;20094;-66
2022/09/26 05:53:11;;;;;;;2.90;2.60;;;;;;;19.57;48.92;96351.81;5093624;28;20086;-66
2022/09/26 05:55:40;;;;;;;2.95;2.75;;;;;;;20.28;46.58;96350.69;5093491;28;20497;-66
2022/09/26 05:58:08;;;;;;;3.97;2.35;;;;;;;20.40;46.24;96348.84;5093525;28;20047;-65
2022/09/26 06:00:37;;;;;;;2.80;2.47;;;;;;;20.96;45.62;96346.16;5093432;28;20086;-66
2022/09/26 06:03:04;;;;;;;3.40;2.53;;;;;;;21.86;43.46;96353.72;5092949;28;20051;-67
2022/09/26 06:05:33;;;;;;;8.25;2.63;;;;;;;22.98;41.43;96351.00;5093401;28;20086;-67
2022/09/26 06:08:01;;;;;;;2.67;2.10;;;;;;;23.90;39.82;96339.84;5093441;28;20048;-66
2022/09/26 06:10:30;;;;;;;2.75;2.55;;;;;;;24.65;38.49;96334.53;5093339;28;20055;-66
2022/09/26 06:13:02;;;;;;;3.22;2.50;;;;;;;25.28;36.63;96340.75;5093285;28;20476;-66
2022/09/26 06:15:29;;;;;;;3.92;2.33;;;;;;;26.10;35.55;96344.94;5093018;28;20048;-66
2022/09/26 06:18:00;;;;;;;4.72;2.50;;;;;;;26.97;34.44;96350.19;5093194;28;20054;-66
2022/09/26 06:20:27;;;;;;;4.43;2.72;;;;;;;27.21;33.70;96352.06;5093247;28;20436;-66
2022/09/26 06:22:54;;;;;;;2.50;2.30;;;;;;;27.30;34.16;96339.47;5093139;28;20074;-66
2022/09/26 06:25:22;;;;;;;5.63;2.22;;;;;;;27.53;34.46;96341.47;5093154;28;20097;-67
2022/09/26 06:27:49;;;;;;;2.45;2.25;;;;;;;27.78;32.77;96344.09;5093202;28;20080;-66
2022/09/26 06:30:19;;;;;;;3.38;2.40;;;;;;;28.01;31.72;96343.38;5093062;28;20113;-66
2022/09/26 06:32:46;;;;;;;2.45;2.00;;;;;;;27.68;32.66;96333.56;5093144;28;20072;-66
2022/09/26 06:35:13;;;;;;;3.17;2.50;;;;;;;27.84;33.74;96339.91;5092948;28;20051;-66
2022/09/26 06:37:40;;;;;;;2.30;2.10;;;;;;;27.66;34.19;96324.84;5092989;28;20047;-67
2022/09/26 06:40:10;;;;;;;6.18;2.40;;;;;;;27.62;33.70;96318.09;5093278;28;20127;-66
2022/09/26 06:42:37;;;;;;;4.30;2.58;;;;;;;27.79;33.23;96315.41;5093276;28;20121;-67
2022/09/26 06:45:07;;;;;;;4.75;2.63;;;;;;;27.98;33.61;96314.16;5093026;28;20048;-67
2022/09/26 06:47:36;;;;;;;3.78;2.88;;;;;;;27.99;32.83;96321.22;5093008;28;20125;-67
2022/09/26 06:50:04;;;;;;;3.22;2.92;;;;;;;27.39;34.26;96321.50;5092932;28;20509;-67
2022/09/26 06:52:34;;;;;;;2.45;2.25;;;;;;;27.23;34.50;96322.38;5092896;28;20056;-67
2022/09/26 06:55:02;;;;;;;3.05;2.42;;;;;;;26.78;35.12;96319.16;5092941;28;20052;-67
2022/09/26 06:57:36;;;;;;;3.47;2.75;;;;;;;26.58;35.34;96327.53;5092784;28;20135;-67
2022/09/26 07:00:04;;;;;;;2.67;2.47;;;;;;;26.62;35.40;96327.03;5092787;28;20094;-67
2022/09/26 07:02:31;;;;;;;4.20;2.63;;;;;;;26.52;35.61;96320.97;5092848;28;20136;-67
2022/09/26 07:05:01;;;;;;;3.00;2.67;;;;;;;26.51;34.90;96315.78;5092835;28;20138;-67
2022/09/26 07:07:29;;;;;;;5.07;2.42;;;;;;;26.53;34.41;96319.97;5092877;28;20113;-67
2022/09/26 07:09:56;;;;;;;3.13;2.13;;;;;;;26.74;33.99;96330.22;5092589;28;20421;-67
2022/09/26 07:12:24;;;;;;;2.55;1.98;;;;;;;26.62;33.73;96331.53;5092715;28;20051;-67
2022/09/26 07:14:52;;;;;;;3.95;2.35;;;;;;;26.19;34.45;96340.44;5093524;28;20497;-67
2022/09/26 07:17:19;;;;;;;3.30;2.53;;;;;;;26.04;35.00;96342.06;5096539;28;20048;-67
2022/09/26 07:19:52;;;;;;;2.67;2.30;;;;;;;25.95;34.82;96343.88;5096514;28;20078;-67
2022/09/26 07:22:20;;;;;;;2.85;2.28;;;;;;;26.08;34.02;96340.72;5096452;28;20094;-67
2022/09/26 07:24:49;;;;;;;3.25;2.55;;;;;;;26.31;34.01;96338.31;5096334;28;20054;-67
2022/09/26 07:27:17;;;;;;;4.95;2.35;;;;;;;26.45;34.58;96336.88;5096340;28;20428;-67
2022/09/26 07:29:46;;;;;;;2.58;2.35;;;;;;;26.71;33.40;96327.88;5096311;28;20069;-67
2022/09/26 07:32:13;;;;;;;4.72;2.38;;;;;;;26.94;33.22;96327.19;5096173;28;20055;-67
2022/09/26 07:34:42;;;;;;;4.28;2.22;;;;;;;27.12;33.43;96331.63;5096271;28;20072;-67
2022/09/26 07:37:10;;;;;;;3.25;2.25;;;;;;;27.14;32.61;96320.72;5096036;28;20050;-67
2022/09/26 07:39:39;;;;;;;5.60;2.33;;;;;;;27.15;33.22;96311.66;5095954;28;20119;-67
2022/09/26 07:42:07;;;;;;;3.97;2.50;;;;;;;27.15;33.72;96307.09;5095942;28;20091;-67
2022/09/26 07:44:34;;;;;;;4.40;2.17;;;;;;;27.34;33.14;96313.13;5095858;28;20555;-67
2022/09/26 07:52:31;;;;;;;3.85;2.20;;;;;;;27.17;33.12;96305.09;5095893;28;20101;-67
2022/09/26 07:54:59;;;;;;;3.75;2.25;;;;;;;27.10;32.36;96301.41;5095676;28;20477;-67
2022/09/26 07:57:31;;;;;;;2.58;2.38;;;;;;;27.14;32.02;96302.75;5095858;28;20040;-67
2022/09/26 07:59:59;;;;;;;3.28;2.42;;;;;;;27.32;32.53;96301.72;5095702;28;20406;-67
2022/09/26 08:02:32;;;;;;;3.40;2.38;;;;;;;27.28;32.61;96298.56;5095797;28;20044;-67
2022/09/26 08:05:02;;;;;;;2.97;2.50;;;;;;;27.18;32.06;96292.53;5095583;28;20047;-67
2022/09/26 08:07:29;;;;;;;6.70;2.63;;;;;;;27.27;32.56;96302.22;5095771;28;20131;-67
2022/09/26 08:09:57;;;;;;;4.78;2.45;;;;;;;27.33;32.35;96306.09;5095661;28;20123;-67
2022/09/26 08:12:26;;;;;;;5.28;2.97;;;;;;;27.11;32.93;96300.41;5095400;28;20044;-67
2022/09/26 08:14:54;;;;;;;4.15;2.83;;;;;;;27.21;33.24;96308.28;5095268;28;20464;-67
2022/09/26 08:17:21;;;;;;;4.70;2.70;;;;;;;27.28;32.45;96295.88;5095375;28;20052;-67
2022/09/26 08:19:48;;;;;;;3.42;2.60;;;;;;;26.90;32.04;96299.03;5095466;28;20514;-67
2022/09/26 08:22:15;;;;;;;5.05;2.88;;;;;;;26.77;33.02;96299.56;5095477;28;20048;-67
2022/09/26 08:24:49;;;;;;;3.33;2.53;;;;;;;26.75;34.00;96302.41;5095365;28;20048;-66
2022/09/26 08:27:17;;;;;;;2.72;2.47;;;;;;;26.65;33.71;96296.34;5094885;28;20052;-67
2022/09/26 08:29:48;;;;;;;6.55;2.88;;;;;;;26.76;33.12;96303.25;5095216;28;20150;-67
2022/09/26 08:32:16;;;;;;;3.80;2.60;;;;;;;26.97;32.76;96302.72;5095091;28;20047;-67
2022/09/26 08:34:43;;;;;;;3.55;2.47;;;;;;;26.91;31.46;96303.38;5095146;28;20517;-67
2022/09/26 08:37:10;;;;;;;3.20;2.90;;;;;;;26.89;31.69;96305.41;5095223;28;20521;-67
2022/09/26 08:39:38;;;;;;;5.30;2.70;;;;;;;26.28;32.78;96300.28;5094960;28;20494;-67
2022/09/26 08:42:22;;;;;;;3.45;2.72;;;;;;;26.17;33.93;96288.00;5095114;28;20668;-66
2022/09/26 08:48:35;;;;;;;3.75;2.80;;;;;;;26.06;33.71;96281.94;5072774;28;20082;-66
2022/09/26 08:51:12;;;;;;;4.63;2.63;;;;;;;25.79;34.40;96269.66;5072273;28;20508;-66
2022/09/26 08:53:46;;;;;;;3.15;2.50;;;;;;;25.84;35.20;96262.81;5089045;28;20051;-67
2022/09/26 08:56:20;;;;;;;8.48;3.13;;;;;;;25.78;33.29;96257.25;5094636;28;20382;-67
2022/09/26 08:58:51;;;;;;;4.90;3.15;;;;;;;25.51;34.26;96256.41;5094700;28;20135;-67
2022/09/26 09:01:27;;;;;;;3.63;2.97;;;;;;;25.18;33.94;96265.94;5094464;28;20048;-66
2022/09/26 09:04:02;;;;;;;6.88;2.97;;;;;;;24.98;34.65;96265.28;5094452;28;20040;-66
2022/09/26 09:06:29;;;;;;;10.68;3.35;;;;;;;24.78;34.76;96262.78;5094382;28;20105;-66
2022/09/26 09:08:57;;;;;;;5.68;2.90;;;;;;;24.81;37.26;96267.84;5094505;28;20130;-66
2022/09/26 09:11:45;;;;;;;12.07;4.10;;;;;;;24.73;36.65;96263.25;5094419;28;20044;-66
2022/09/26 09:14:26;;;;;;;6.85;3.90;;;;;;;24.35;35.04;96267.94;5094325;28;20378;-66
2022/09/26 09:17:09;;;;;;;9.73;3.45;;;;;;;24.17;37.67;96265.25;5094336;28;20071;-66
2022/09/26 09:19:45;;;;;;;7.32;3.00;;;;;;;24.33;37.13;96254.72;5094173;28;20134;-66
2022/09/26 09:22:43;;;;;;;4.72;3.63;;;;;;;24.69;37.79;96242.31;5094133;28;20550;-66
2022/09/26 09:25:15;;;;;;;3.38;2.60;;;;;;;24.79;35.52;96232.38;5094095;28;20060;-67
2022/09/26 09:28:00;;;;;;;5.50;3.08;;;;;;;24.84;35.54;96234.59;5094029;28;20044;-67
2022/09/26 09:30:36;;;;;;;3.30;2.88;;;;;;;25.14;36.72;96232.50;5094045;28;20123;-66
2022/09/26 09:33:12;;;;;;;6.35;2.80;;;;;;;25.41;34.48;96230.63;5093948;28;20051;-66
2022/09/26 09:35:43;;;;;;;5.43;3.10;;;;;;;25.52;34.76;96226.00;5093868;28;20515;-66
2022/09/26 09:38:16;;;;;;;5.40;2.85;;;;;;;25.68;36.46;96217.22;5092952;28;20079;-67
2022/09/26 09:40:50;;;;;;;5.45;2.83;;;;;;;25.71;33.38;96219.56;5093812;28;20059;-66
2022/09/26 09:43:26;;;;;;;7.03;2.60;;;;;;;25.27;34.17;96217.81;5093903;28;20055;-66
2022/09/26 09:45:57;;;;;;;7.10;2.50;;;;;;;25.14;35.58;96208.41;5093723;28;20048;-66
2022/09/26 09:48:28;;;;;;;4.47;2.80;;;;;;;25.30;34.53;96212.16;5093796;28;20147;-67
2022/09/26 09:51:09;;;;;;;5.47;3.00;;;;;;;25.30;35.15;96210.31;5093814;28;20044;-67
2022/09/26 09:54:08;;;;;;;8.10;2.70;;;;;;;25.15;35.77;96203.88;5093724;28;20126;-66
2022/09/26 09:56:41;;;;;;;6.50;3.38;;;;;;;25.26;35.93;96194.75;5093470;28;20040;-66
2022/09/26 09:59:29;;;;;;;8.30;3.08;;;;;;;25.41;35.03;96213.72;5093437;28;20105;-67
2022/09/26 10:02:12;;;;;;;3.78;2.70;;;;;;;25.54;34.83;96234.69;5093540;28;20492;-67
2022/09/26 10:04:45;;;;;;;5.47;3.25;;;;;;;25.64;34.54;96229.25;5093720;28;20074;-67
2022/09/26 10:07:12;;;;;;;7.47;2.80;;;;;;;25.59;34.29;96225.19;5093345;28;20135;-67
2022/09/26 10:09:42;;;;;;;4.53;2.50;;;;;;;25.64;35.50;96208.66;5093352;28;20101;-67
2022/09/26 10:12:16;;;;;;;7.63;2.80;;;;;;;25.72;35.00;96202.50;5093431;28;20051;-67
2022/09/26 10:14:51;;;;;;;5.35;3.10;;;;;;;25.65;33.84;96202.31;5093087;28;20048;-66
2022/09/26 10:17:20;;;;;;;7.18;2.83;;;;;;;25.64;33.81;96200.63;5093383;28;20496;-66
2022/09/26 10:19:49;;;;;;;3.88;2.85;;;;;;;25.63;34.09;96198.09;5093287;28;20452;-67
2022/09/26 10:22:24;;;;;;;3.33;2.50;;;;;;;25.66;33.61;96195.09;5093335;28;20044;-66
2022/09/26 10:24:59;;;;;;;3.78;2.33;;;;;;;25.61;33.10;96201.78;5093129;28;20139;-66
2022/09/26 10:27:36;;;;;;;4.35;2.80;;;;;;;25.60;34.41;96201.94;5093089;28;20514;-67
2022/09/26 10:30:20;;;;;;;2.97;2.67;;;;;;;25.56;34.19;96206.78;5093177;28;20438;-67
2022/09/26 10:32:50;;;;;;;5.38;2.97;;;;;;;25.43;33.35;96211.72;5093433;28;20402;-66
2022/09/26 10:35:22;;;;;;;6.88;2.80;;;;;;;25.37;34.61;96202.47;5093288;28;20044;-67
2022/09/26 10:37:59;;;;;;;5.05;2.72;;;;;;;25.30;32.97;96196.94;5093156;28;20044;-67
2022/09/26 10:40:45;;;;;;;6.80;2.85;;;;;;;25.25;33.33;96191.22;5093244;28;20044;-67
2022/09/26 10:43:27;;;;;;;5.47;2.50;;;;;;;25.23;34.07;96187.88;5093030;28;20051;-67
2022/09/26 10:45:59;;;;;;;4.10;2.45;;;;;;;25.25;33.54;96177.84;5092936;28;20135;-66
2022/09/26 10:48:45;;;;;;;8.50;2.60;;;;;;;24.91;31.39;96170.63;5093546;28;20387;-66
2022/09/26 10:51:22;;;;;;;6.50;2.50;;;;;;;25.02;33.14;96178.41;5097047;28;20494;-66
2022/09/26 10:53:52;;;;;;;5.55;2.33;;;;;;;25.02;33.94;96177.56;5097093;28;20056;-67
2022/09/26 10:56:26;;;;;;;4.00;2.75;;;;;;;25.02;32.32;96174.88;5096828;28;20044;-67
2022/09/26 10:58:58;;;;;;;6.07;2.72;;;;;;;24.76;32.77;96165.00;5096618;28;20044;-67
2022/09/26 11:01:28;;;;;;;4.90;2.72;;;;;;;24.73;33.06;96164.31;5096807;28;20040;-67
2022/09/26 11:04:00;;;;;;;4.63;2.90;;;;;;;24.61;33.17;96160.22;5096772;28;20085;-67
2022/09/26 11:06:33;;;;;;;9.27;2.72;;;;;;;24.36;34.84;96154.69;5096711;28;20497;-67
2022/09/26 11:09:02;;;;;;;4.65;2.13;;;;;;;24.36;33.38;96149.34;5096730;28;20044;-67
2022/09/26 11:11:34;;;;;;;5.03;2.85;;;;;;;24.32;32.77;96140.78;5096661;28;20047;-67
2022/09/26 11:14:06;;;;;;;3.55;2.72;;;;;;;24.38;33.83;96146.53;5096522;28;20509;-67
2022/09/26 11:16:52;;;;;;;5.05;2.47;;;;;;;24.48;34.47;96149.94;5096241;28;20477;-67
2022/09/26 11:19:38;;;;;;;5.53;2.40;;;;;;;24.46;35.20;96159.94;5096397;28;20059;-66
2022/09/26 11:22:14;;;;;;;4.88;2.85;;;;;;;24.48;34.79;96161.47;5096432;28;20052;-67
2022/09/26 11:24:51;;;;;;;3.60;2.45;;;;;;;24.53;34.68;96157.50;5096353;28;20406;-67
2022/09/26 11:27:29;;;;;;;4.18;2.40;;;;;;;24.66;32.41;96159.75;5096319;28;20123;-67
2022/09/26 11:30:07;;;;;;;3.28;2.65;;;;;;;24.69;33.08;96154.94;5096239;28;20086;-67
2022/09/26 11:32:39;;;;;;;6.65;2.90;;;;;;;24.66;32.28;96155.25;5096186;28;20083;-67
2022/09/26 11:35:13;;;;;;;3.10;2.80;;;;;;;24.31;32.25;96154.31;5096187;28;20123;-67
2022/09/26 11:38:15;;;;;;;3.17;2.53;;;;;;;24.27;32.44;96148.44;5096172;28;20452;-67
2022/09/26 11:40:59;;;;;;;5.22;2.63;;;;;;;24.31;32.92;96140.94;5096106;28;20086;-66
2022/09/26 11:43:38;;;;;;;9.43;3.08;;;;;;;24.45;32.26;96136.91;5095897;28;20044;-67
2022/09/26 11:46:25;;;;;;;2.97;2.30;;;;;;;24.53;32.11;96123.56;5095886;28;20045;-67
2022/09/26 11:49:16;;;;;;;6.20;2.42;;;;;;;24.36;30.66;96112.75;5095947;28;20466;-67
2022/09/26 11:51:57;;;;;;;4.78;2.50;;;;;;;24.47;30.42;96105.53;5095839;28;20048;-67
2022/09/26 11:54:57;;;;;;;9.02;2.20;;;;;;;24.46;31.23;96107.34;5095708;28;20043;-66
2022/09/26 11:57:37;;;;;;;2.63;2.30;;;;;;;24.49;30.98;96108.84;5095766;28;20048;-67
2022/09/26 12:00:11;;;;;;;4.60;2.65;;;;;;;24.58;31.28;96107.91;5095123;28;20052;-67
2022/09/26 12:03:18;;;;;;;6.63;2.85;;;;;;;24.70;32.05;96116.50;5095657;28;20075;-67
2022/09/26 12:05:53;;;;;;;6.43;2.40;;;;;;;24.58;30.64;96110.59;5089549;28;20044;-67
2022/09/26 12:08:36;;;;;;;3.28;2.33;;;;;;;24.63;29.94;96114.63;5095572;28;20402;-67
2022/09/26 12:11:18;;;;;;;3.55;2.50;;;;;;;24.60;31.54;96113.13;5095565;28;20121;-66
2022/09/26 12:13:54;;;;;;;6.95;2.50;;;;;;;24.81;32.20;96104.72;5095390;28;20048;-66